Murtala Muhammed International Airport


Codes: DNMM/LOS
Name: Murtala Muhammed International Airport
City: Lagos
Country: Nigeria
Elevation: 135 ft.
Website:
Wikipedia:

Photos at Murtala Muhammed International Airport


   Photos courtesy of SpottingLog. You can add your own sightings and photos by signing up for a free trial today.



No photos found.

Weather at Murtala Muhammed International Airport


Time (UTC)DescriptionTempratureWindCloud coverageVisibilityPressureHumidity
21-Feb-2024 03:00Few Clouds27°C7 mph, SW20%10000m1008hPa94%
21-Feb-2024 06:00Few Clouds27°C4 mph, SW24%10000m1008hPa90%
21-Feb-2024 09:00Broken Clouds30°C7 mph, SW53%10000m1009hPa72%
21-Feb-2024 12:00Broken Clouds33°C11 mph, S67%10000m1008hPa54%
21-Feb-2024 15:00Broken Clouds33°C11 mph, S55%10000m1005hPa57%
21-Feb-2024 18:00Light Rain30°C7 mph, SW45%10000m1006hPa66%
21-Feb-2024 21:00Scattered Clouds29°C9 mph, SW30%10000m1007hPa74%
22-Feb-2024 00:00Scattered Clouds28°C11 mph, SW38%10000m1008hPa80%
22-Feb-2024 03:00Scattered Clouds28°C9 mph, SW43%10000m1006hPa83%
22-Feb-2024 06:00Scattered Clouds28°C7 mph, W43%10000m1008hPa83%
22-Feb-2024 09:00Light Rain31°C9 mph, SW48%10000m1009hPa62%
22-Feb-2024 12:00Broken Clouds34°C13 mph, SW66%10000m1007hPa51%
22-Feb-2024 15:00Scattered Clouds33°C13 mph, SW44%10000m1004hPa54%
22-Feb-2024 18:00Scattered Clouds30°C11 mph, SW31%10000m1006hPa68%
22-Feb-2024 21:00Few Clouds29°C7 mph, S15%10000m1009hPa75%
23-Feb-2024 00:00Scattered Clouds28°C7 mph, SW26%10000m1008hPa80%
23-Feb-2024 03:00Broken Clouds28°C9 mph, SW60%10000m1007hPa81%
23-Feb-2024 06:00Broken Clouds28°C7 mph, SW80%10000m1008hPa82%
23-Feb-2024 09:00Overcast Clouds29°C7 mph, SW100%10000m1010hPa78%
23-Feb-2024 12:00Overcast Clouds31°C9 mph, SW97%10000m1009hPa67%
23-Feb-2024 15:00Light Rain33°C11 mph, SW81%10000m1006hPa56%
23-Feb-2024 18:00Light Rain30°C7 mph, S61%10000m1008hPa69%
23-Feb-2024 21:00Light Rain29°C7 mph, S43%10000m1010hPa73%
24-Feb-2024 00:00Broken Clouds28°C4 mph, SE63%10000m1011hPa78%
24-Feb-2024 03:00Broken Clouds28°C4 mph, S61%10000m1009hPa79%
24-Feb-2024 06:00Broken Clouds28°C4 mph, SW81%10000m1010hPa77%
24-Feb-2024 09:00Overcast Clouds29°C7 mph, SW99%10000m1011hPa71%
24-Feb-2024 12:00Overcast Clouds32°C7 mph, SW97%10000m1010hPa56%
24-Feb-2024 15:00Broken Clouds33°C11 mph, SW74%10000m1007hPa50%
24-Feb-2024 18:00Broken Clouds30°C9 mph, S83%10000m1008hPa67%
24-Feb-2024 21:00Overcast Clouds29°C9 mph, SW88%10000m1011hPa76%
25-Feb-2024 00:00Broken Clouds28°C9 mph, SW57%10000m1010hPa82%
25-Feb-2024 03:00Scattered Clouds27°C9 mph, SW49%10000m1009hPa85%
25-Feb-2024 06:00Broken Clouds28°C7 mph, SW70%10000m1010hPa85%
25-Feb-2024 09:00Overcast Clouds29°C9 mph, SW88%10000m1012hPa76%
25-Feb-2024 12:00Overcast Clouds32°C9 mph, S87%10000m1011hPa60%
25-Feb-2024 15:00Scattered Clouds32°C11 mph, S45%10000m1008hPa56%
25-Feb-2024 18:00Light Rain30°C9 mph, SW31%10000m1009hPa70%
25-Feb-2024 21:00Scattered Clouds29°C9 mph, SW25%10000m1012hPa73%
26-Feb-2024 00:00Scattered Clouds28°C11 mph, SW34%10000m1010hPa77%